Time;durP1;ratioP1;P1;durP2;ratioP2;P2;SDS_P1;SDS_P2;PMS_P1;PMS_P2;Temp;Humidity;BMP_temperature;BMP_pressure;BME280_temperature;BME280_humidity;BME280_pressure;Samples;Min_cycle;Max_cycle;Signal;HPM_P1;HPM_P2
2023/05/09 00:01:05;;;;;;;;;4.00;3.25;;;;;18.68;66.72;101073.97;5074256;27;45563;-73
2023/05/09 00:03:32;;;;;;;;;5.00;5.00;;;;;18.68;66.77;101076.63;5089367;27;47402;-72
2023/05/09 00:05:57;;;;;;;;;4.00;3.75;;;;;18.69;66.61;101075.66;5073417;27;46954;-73
2023/05/09 00:08:22;;;;;;;;;4.00;4.00;;;;;18.69;66.71;101073.00;5073692;27;45643;-73
2023/05/09 00:10:48;;;;;;;;;4.00;3.25;;;;;18.71;66.68;101071.03;5073844;27;45753;-74
2023/05/09 00:13:13;;;;;;;;;5.25;5.25;;;;;18.68;66.27;101055.38;5073814;27;45609;-72
2023/05/09 00:15:38;;;;;;;;;5.75;4.00;;;;;18.69;66.35;101054.41;5073331;27;46924;-73
2023/05/09 00:21:27;;;;;;;;;5.00;4.00;;;;;18.71;65.87;101041.00;5076860;28;45572;-73
2023/05/09 00:23:52;;;;;;;;;4.75;4.25;;;;;18.71;66.03;101039.19;5076959;27;47510;-71
2023/05/09 00:26:17;;;;;;;;;3.50;3.50;;;;;18.68;65.72;101035.97;5076973;27;46837;-74
2023/05/09 00:28:43;;;;;;;;;4.50;4.00;;;;;18.67;65.58;101029.84;5077249;27;45715;-75
2023/05/09 00:31:08;;;;;;;;;4.00;4.00;;;;;18.68;65.63;101041.28;5077023;27;45568;-75
2023/05/09 00:33:33;;;;;;;;;4.00;4.00;;;;;18.66;65.61;101035.31;5077261;27;45738;-72
2023/05/09 00:35:59;;;;;;;;;4.25;3.75;;;;;18.67;65.60;101032.50;5076955;27;45659;-73
2023/05/09 00:38:24;;;;;;;;;4.00;4.00;;;;;18.65;65.78;101029.16;5076770;28;45524;-76
2023/05/09 00:40:50;;;;;;;;;3.25;3.25;;;;;18.67;65.78;101034.34;5077113;27;45592;-75
2023/05/09 00:43:15;;;;;;;;;4.75;4.00;;;;;18.66;65.63;101027.34;5092370;27;48924;-74
2023/05/09 00:45:41;;;;;;;;;4.00;4.00;;;;;18.60;65.40;101019.97;5076648;27;46951;-75
2023/05/09 00:51:29;;;;;;;;;5.25;4.50;;;;;18.55;65.53;101014.28;5076705;28;45607;-75
2023/05/09 00:53:55;;;;;;;;;5.25;4.50;;;;;18.54;65.20;101018.75;5091972;27;48258;-76
2023/05/09 00:56:20;;;;;;;;;4.25;4.25;;;;;18.52;65.61;101014.53;5076411;27;45997;-74
2023/05/09 00:58:46;;;;;;;;;2.50;2.50;;;;;18.51;65.69;101007.59;5076770;27;45597;-70
2023/05/09 01:01:11;;;;;;;;;4.00;4.00;;;;;18.52;65.28;101003.94;5092109;27;45595;-74
2023/05/09 01:03:38;;;;;;;;;5.50;4.75;;;;;18.51;65.27;101004.94;5076269;27;46765;-74
2023/05/09 01:06:16;;;;;;;;;3.25;3.25;;;;;18.48;65.37;100992.78;5076185;27;46676;-75
2023/05/09 01:08:55;;;;;;;;;3.00;3.00;;;;;18.44;65.06;100989.63;5077944;28;45641;-73
2023/05/09 01:11:59;;;;;;;;;4.00;4.00;;;;;18.40;65.19;100993.56;5075714;28;45574;-72
2023/05/09 01:14:56;;;;;;;;;3.00;3.00;;;;;18.35;65.51;100984.38;5072115;27;47679;-75
2023/05/09 01:17:43;;;;;;;;;6.25;4.25;;;;;18.32;65.50;100976.69;5076472;27;45901;-75
2023/05/09 01:20:27;;;;;;;;;3.00;3.00;;;;;18.31;65.18;100975.88;5076409;27;45497;-74
2023/05/09 01:23:26;;;;;;;;;2.75;2.75;;;;;18.31;65.60;100978.53;5076537;28;45530;-75
2023/05/09 01:26:27;;;;;;;;;4.00;4.00;;;;;18.29;65.76;100975.19;5076069;28;46434;-74
2023/05/09 01:28:55;;;;;;;;;4.25;3.50;;;;;18.26;65.78;100967.53;5053496;28;46903;-75
2023/05/09 01:31:21;;;;;;;;;4.00;3.00;;;;;18.25;65.76;100959.72;5053465;28;45783;-72
2023/05/09 01:33:55;;;;;;;;;3.50;3.25;;;;;18.27;65.88;100955.09;5053569;28;45676;-72
2023/05/09 01:36:22;;;;;;;;;5.25;4.00;;;;;18.28;65.37;100947.00;5053702;28;46490;-74
2023/05/09 01:38:50;;;;;;;;;4.50;3.50;;;;;18.28;65.77;100952.31;5053611;28;45998;-72
2023/05/09 01:41:18;;;;;;;;;5.00;5.00;;;;;18.26;65.02;100948.97;5053462;28;45746;-74
2023/05/09 01:43:46;;;;;;;;;2.75;2.75;;;;;18.23;65.53;100951.94;5053887;28;45827;-73
2023/05/09 01:46:15;;;;;;;;;5.00;4.00;;;;;18.21;65.72;100953.88;5053525;28;46723;-74
2023/05/09 01:48:42;;;;;;;;;6.00;4.00;;;;;18.20;65.68;100949.56;5053052;28;47030;-72
2023/05/09 01:51:09;;;;;;;;;4.00;4.00;;;;;18.19;65.47;100939.13;5053142;28;45612;-76
2023/05/09 01:53:35;;;;;;;;;3.00;2.75;;;;;18.21;65.36;100945.91;5053688;28;45785;-72
2023/05/09 01:56:02;;;;;;;;;5.00;4.00;;;;;18.21;65.56;100943.28;5053380;28;46668;-73
2023/05/09 01:58:31;;;;;;;;;3.00;3.00;;;;;18.21;65.14;100939.78;5053167;28;46099;-73
2023/05/09 02:00:59;;;;;;;;;1.25;1.00;;;;;18.22;65.30;100944.09;5053048;28;45565;-72
2023/05/09 02:03:24;;;;;;;;;5.00;4.00;;;;;18.20;65.88;100940.75;5036311;28;45677;-73
2023/05/09 02:05:51;;;;;;;;;4.25;4.25;;;;;18.22;65.83;100934.34;5063681;28;46340;-75
2023/05/09 02:08:20;;;;;;;;;4.00;4.00;;;;;18.24;65.44;100937.69;5075335;28;46071;-75
2023/05/09 02:10:46;;;;;;;;;4.00;3.50;;;;;18.24;65.55;100934.19;5075361;27;45764;-73
2023/05/09 02:13:11;;;;;;;;;4.00;4.00;;;;;18.25;64.82;100936.69;5075711;28;45784;-74
2023/05/09 02:15:38;;;;;;;;;4.00;4.00;;;;;18.24;65.19;100932.38;5075314;27;46313;-75
2023/05/09 02:18:04;;;;;;;;;3.00;3.00;;;;;18.23;65.65;100928.06;5075410;27;46094;-74
2023/05/09 02:20:30;;;;;;;;;4.00;3.00;;;;;18.24;65.46;100926.25;5075547;27;45662;-73
2023/05/09 02:22:55;;;;;;;;;3.50;2.00;;;;;18.21;65.11;100930.00;5075489;27;45483;-76
2023/05/09 02:25:21;;;;;;;;;3.50;3.50;;;;;18.21;65.71;100927.34;5075179;28;45750;-75
2023/05/09 02:27:46;;;;;;;;;2.00;2.00;;;;;18.24;65.58;100928.88;5075470;27;46693;-74
2023/05/09 02:30:17;;;;;;;;;4.00;3.75;;;;;18.22;65.54;100922.88;5074959;27;45502;-74
2023/05/09 02:32:46;;;;;;;;;3.50;3.50;;;;;18.18;65.36;100926.84;5075354;28;45500;-74
2023/05/09 02:35:13;;;;;;;;;4.00;4.00;;;;;18.20;65.41;100924.84;5073735;28;45708;-73
2023/05/09 02:37:39;;;;;;;;;4.00;3.75;;;;;18.21;65.78;100923.88;5075194;27;46363;-75
2023/05/09 02:40:08;;;;;;;;;3.00;3.00;;;;;18.22;65.75;100923.72;5075088;27;45520;-72
2023/05/09 02:42:34;;;;;;;;;3.50;3.00;;;;;18.22;65.73;100915.75;5074349;27;45667;-75
2023/05/09 02:44:59;;;;;;;;;5.00;4.50;;;;;18.22;65.73;100918.41;5074707;27;47278;-74
2023/05/09 02:47:25;;;;;;;;;4.50;4.00;;;;;18.19;65.29;100925.84;5075058;27;45652;-74
2023/05/09 02:49:50;;;;;;;;;3.50;3.50;;;;;18.16;65.71;100918.19;5075022;28;45571;-72
2023/05/09 02:52:15;;;;;;;;;4.00;3.75;;;;;18.17;65.39;100915.38;5075226;27;45707;-74
2023/05/09 02:54:41;;;;;;;;;4.50;4.00;;;;;18.16;65.56;100908.41;5074506;27;47308;-74
2023/05/09 02:57:06;;;;;;;;;5.00;4.00;;;;;18.17;65.97;100903.94;5074609;27;46183;-75
2023/05/09 02:59:33;;;;;;;;;4.25;3.50;;;;;18.18;65.73;100913.56;5074856;27;45596;-74
2023/05/09 03:01:58;;;;;;;;;4.50;4.50;;;;;18.13;66.12;100900.78;5075063;27;45726;-73
2023/05/09 03:08:00;;;;;;;;;4.00;4.00;;;;;18.11;66.30;100893.94;5065480;28;45931;-74
2023/05/09 03:10:25;;;;;;;;;4.00;4.00;;;;;18.13;65.97;100897.28;5074723;27;45562;-75
2023/05/09 03:12:50;;;;;;;;;4.00;4.00;;;;;18.12;66.27;100896.44;5074812;27;45784;-76
2023/05/09 03:15:16;;;;;;;;;4.50;4.00;;;;;18.08;66.39;100897.72;5074474;27;45767;-74
2023/05/09 03:17:41;;;;;;;;;4.50;3.75;;;;;18.03;66.31;100914.06;5074421;27;45695;-73
2023/05/09 03:20:07;;;;;;;;;4.00;4.00;;;;;18.02;66.31;100895.69;5074659;27;45685;-75
2023/05/09 03:22:32;;;;;;;;;5.25;4.00;;;;;17.98;66.33;100905.72;5074766;27;45515;-73
2023/05/09 03:24:58;;;;;;;;;4.00;4.00;;;;;17.98;66.87;100897.78;5090383;27;48313;-72
2023/05/09 03:27:25;;;;;;;;;4.00;4.00;;;;;17.95;66.31;100892.78;5074631;27;46819;-73
2023/05/09 03:29:50;;;;;;;;;4.50;4.00;;;;;17.91;66.49;100898.53;5074448;27;45553;-77
2023/05/09 03:32:15;;;;;;;;;0.00;0.00;;;;;17.85;66.59;100899.97;5090188;27;45882;-72
2023/05/09 03:38:02;;;;;;;;;2.75;2.75;;;;;17.76;66.47;100895.53;5073957;28;45494;-73
2023/05/09 03:40:28;;;;;;;;;4.00;3.00;;;;;17.73;66.32;100887.06;5074065;27;45549;-73
2023/05/09 03:42:53;;;;;;;;;3.00;2.75;;;;;17.66;66.17;100885.97;5074081;27;45611;-74
2023/05/09 03:45:19;;;;;;;;;5.75;4.00;;;;;17.57;66.42;100885.03;5074096;27;46363;-74
2023/05/09 03:47:45;;;;;;;;;5.00;4.00;;;;;17.53;66.43;100878.34;5074234;27;45755;-73
2023/05/09 03:53:31;;;;;;;;;4.00;3.25;;;;;17.39;66.65;100876.16;5074006;28;45497;-73
2023/05/09 03:55:57;;;;;;;;;3.00;3.00;;;;;17.37;66.74;100873.69;5073609;27;46459;-76
2023/05/09 03:58:22;;;;;;;;;3.25;3.00;;;;;17.33;66.31;100869.66;5073913;27;46159;-76
2023/05/09 04:00:48;;;;;;;;;2.75;2.75;;;;;17.26;66.57;100873.03;5074106;27;45641;-76
2023/05/09 04:03:13;;;;;;;;;3.00;2.00;;;;;17.20;66.37;100871.81;5074146;27;45731;-77
2023/05/09 04:05:39;;;;;;;;;4.50;3.75;;;;;17.17;66.85;100869.44;5073485;27;47495;-76
2023/05/09 04:08:05;;;;;;;;;3.50;2.50;;;;;17.15;67.17;100864.31;5073321;27;46356;-73
2023/05/09 04:10:31;;;;;;;;;3.00;3.00;;;;;17.11;67.08;100868.19;5089511;27;45687;-75
2023/05/09 04:12:56;;;;;;;;;4.25;3.00;;;;;17.02;66.83;100863.78;5073987;28;45565;-76
2023/05/09 04:15:21;;;;;;;;;3.50;3.50;;;;;16.93;67.55;100859.34;5073821;27;45556;-73
2023/05/09 04:17:47;;;;;;;;;2.00;2.00;;;;;16.90;66.79;100859.63;5073737;27;46107;-73
2023/05/09 04:23:34;;;;;;;;;2.00;1.25;;;;;16.81;66.55;100852.56;5073518;28;45641;-74
2023/05/09 04:25:59;;;;;;;;;2.50;2.00;;;;;16.78;66.72;100861.63;5073723;27;46264;-73
2023/05/09 04:28:25;;;;;;;;;2.00;1.25;;;;;16.76;66.61;100857.44;5073539;27;45612;-75
2023/05/09 04:30:51;;;;;;;;;1.75;1.50;;;;;16.77;66.33;100853.81;5073300;27;45647;-74
2023/05/09 04:33:16;;;;;;;;;1.25;1.00;;;;;16.76;66.07;100844.22;5073913;27;45685;-74
2023/05/09 04:35:41;;;;;;;;;1.00;0.75;;;;;16.75;65.65;100847.81;5073389;27;46302;-72
2023/05/09 04:38:07;;;;;;;;;1.00;1.00;;;;;16.77;65.66;100837.94;5073139;27;46073;-74
2023/05/09 04:40:32;;;;;;;;;0.00;0.00;;;;;16.78;65.78;100836.97;5073595;27;46005;-73
2023/05/09 04:42:58;;;;;;;;;1.00;1.00;;;;;16.76;65.19;100829.16;5073650;27;45616;-72
2023/05/09 04:45:23;;;;;;;;;1.00;1.00;;;;;16.74;65.11;100827.63;5073370;27;45700;-74
2023/05/09 04:47:49;;;;;;;;;1.00;1.00;;;;;16.74;65.13;100832.91;5073327;27;46048;-73
2023/05/09 04:53:36;;;;;;;;;0.00;0.00;;;;;16.79;65.09;100823.56;5073183;28;45593;-75
2023/05/09 04:56:01;;;;;;;;;1.00;1.00;;;;;16.84;65.69;100832.91;5073044;27;45842;-73
2023/05/09 04:58:27;;;;;;;;;0.75;0.75;;;;;16.85;65.36;100818.69;5072798;27;46809;-72
2023/05/09 05:00:52;;;;;;;;;1.25;1.00;;;;;16.88;65.86;100810.47;5073094;27;45797;-73
2023/05/09 05:03:18;;;;;;;;;1.00;0.75;;;;;16.90;65.63;100811.97;5073461;27;45747;-75
2023/05/09 05:09:05;;;;;;;;;1.25;1.00;;;;;16.95;65.40;100811.56;5065131;28;46317;-73
2023/05/09 05:11:30;;;;;;;;;1.00;1.00;;;;;16.95;65.17;100808.94;5076636;28;45572;-72
2023/05/09 05:13:55;;;;;;;;;0.75;0.00;;;;;16.95;65.34;100803.63;5076606;27;45631;-73
2023/05/09 05:16:21;;;;;;;;;1.00;1.00;;;;;16.96;65.15;100802.63;5076585;27;45669;-72
2023/05/09 05:18:46;;;;;;;;;1.00;1.00;;;;;16.96;65.40;100798.16;5076189;27;46345;-74
2023/05/09 05:21:11;;;;;;;;;2.00;1.75;;;;;16.96;65.47;100792.88;5076157;27;45639;-74
2023/05/09 05:23:37;;;;;;;;;1.25;1.00;;;;;16.97;65.78;100791.91;5076390;27;45563;-74
2023/05/09 05:26:02;;;;;;;;;1.50;1.00;;;;;16.98;65.30;100790.09;5076347;27;45580;-76
2023/05/09 05:28:28;;;;;;;;;2.00;2.00;;;;;16.96;65.23;100782.28;5076136;27;45893;-75
2023/05/09 05:30:53;;;;;;;;;1.00;1.00;;;;;16.95;65.72;100780.63;5076143;27;45672;-74
2023/05/09 05:33:18;;;;;;;;;1.00;1.00;;;;;16.96;65.61;100784.94;5076177;27;45548;-72
2023/05/09 05:39:06;;;;;;;;;2.25;2.25;;;;;16.96;66.01;100787.59;5075791;28;45596;-73
2023/05/09 05:41:31;;;;;;;;;2.00;1.75;;;;;16.96;65.92;100773.50;5076170;27;45690;-72
2023/05/09 05:43:56;;;;;;;;;3.00;2.00;;;;;16.95;65.60;100780.63;5076189;27;45652;-74
2023/05/09 05:46:21;;;;;;;;;2.50;2.00;;;;;16.95;66.19;100790.41;5076071;27;45624;-72
2023/05/09 05:48:47;;;;;;;;;1.25;1.00;;;;;16.93;65.85;100779.09;5075752;27;51137;-73
2023/05/09 05:54:34;;;;;;;;;4.00;2.75;;;;;16.91;66.60;100773.94;5075591;28;45553;-73
2023/05/09 05:56:59;;;;;;;;;2.00;2.00;;;;;16.88;66.39;100774.25;5075992;27;46348;-72
2023/05/09 05:59:24;;;;;;;;;2.00;2.00;;;;;16.86;66.04;100768.25;5075667;27;46428;-75
2023/05/09 06:01:50;;;;;;;;;3.00;3.00;;;;;16.86;65.98;100768.25;5075940;27;45784;-74
2023/05/09 06:04:15;;;;;;;;;2.00;1.25;;;;;16.86;66.33;100765.63;5075615;27;45767;-75
2023/05/09 06:06:41;;;;;;;;;2.00;1.75;;;;;16.85;66.23;100763.09;5075349;27;47333;-74
2023/05/09 06:09:07;;;;;;;;;2.00;2.00;;;;;16.83;66.16;100767.72;5075274;27;45761;-76
2023/05/09 06:11:33;;;;;;;;;2.00;1.75;;;;;16.81;66.26;100759.94;5075658;27;45640;-73
2023/05/09 06:13:58;;;;;;;;;2.00;1.00;;;;;16.81;65.93;100752.00;5091217;27;45908;-76
2023/05/09 06:16:23;;;;;;;;;2.00;1.75;;;;;16.80;66.15;100747.66;5075532;27;47370;-75
2023/05/09 06:18:49;;;;;;;;;2.00;2.00;;;;;16.78;65.70;100757.59;5073866;27;46296;-72
2023/05/09 06:24:36;;;;;;;;;2.00;1.00;;;;;16.72;65.83;100745.78;5075209;28;45664;-74
2023/05/09 06:27:02;;;;;;;;;1.25;0.75;;;;;16.73;65.80;100743.97;5075455;27;45764;-74
2023/05/09 06:29:27;;;;;;;;;1.25;1.00;;;;;16.74;66.21;100741.16;5075092;28;46422;-74
2023/05/09 06:31:53;;;;;;;;;1.00;1.00;;;;;16.76;66.09;100736.56;5075332;27;45522;-72
2023/05/09 06:34:18;;;;;;;;;2.00;1.00;;;;;16.78;65.67;100739.06;5075336;27;45642;-75
2023/05/09 06:40:06;;;;;;;;;1.00;1.00;;;;;16.76;65.90;100728.63;5074866;28;46015;-75
2023/05/09 06:42:32;;;;;;;;;3.00;3.00;;;;;16.77;65.94;100727.66;5075356;27;45625;-76
2023/05/09 06:44:57;;;;;;;;;1.75;1.75;;;;;16.77;65.78;100727.66;5074969;27;45878;-77
2023/05/09 06:47:23;;;;;;;;;1.00;1.00;;;;;16.76;65.76;100718.03;5074919;27;46918;-76
2023/05/09 06:49:48;;;;;;;;;1.25;1.25;;;;;16.74;65.76;100719.97;5074878;27;45905;-78
2023/05/09 06:52:14;;;;;;;;;3.00;1.25;;;;;16.71;65.58;100720.28;5075025;27;45755;-76
2023/05/09 06:54:40;;;;;;;;;2.00;2.00;;;;;16.65;65.90;100718.22;5074725;27;45857;-77
2023/05/09 06:57:05;;;;;;;;;1.00;1.00;;;;;16.65;65.84;100717.38;5074946;27;46092;-74
2023/05/09 06:59:31;;;;;;;;;1.25;1.00;;;;;16.64;66.03;100713.91;5074491;27;46239;-75
2023/05/09 07:01:57;;;;;;;;;3.00;3.00;;;;;16.65;65.90;100707.63;5074850;27;45647;-75
2023/05/09 07:04:22;;;;;;;;;2.25;1.75;;;;;16.65;66.11;100702.34;5090313;27;45777;-76
2023/05/09 07:10:09;;;;;;;;;2.00;2.00;;;;;16.64;66.13;100692.72;5063500;28;45878;-79
2023/05/09 07:12:34;;;;;;;;;2.75;2.00;;;;;16.61;65.80;100690.41;5074723;27;45597;-72
2023/05/09 07:15:00;;;;;;;;;1.25;1.25;;;;;16.61;66.05;100690.41;5074773;27;45484;-76
2023/05/09 07:17:25;;;;;;;;;2.00;2.00;;;;;16.60;66.21;100682.59;5074554;27;45578;-78
2023/05/09 07:19:50;;;;;;;;;1.00;1.00;;;;;16.61;66.29;100684.25;5073984;27;47004;-74
2023/05/09 07:22:16;;;;;;;;;2.00;1.50;;;;;16.60;66.18;100675.50;5074591;27;45592;-73
2023/05/09 07:24:43;;;;;;;;;3.00;2.00;;;;;16.61;66.49;100665.75;5074272;27;45504;-77
2023/05/09 07:27:08;;;;;;;;;3.75;3.00;;;;;16.62;66.35;100667.41;5074383;27;45551;-74
2023/05/09 07:29:34;;;;;;;;;1.00;1.00;;;;;16.63;66.48;100669.91;5073933;28;45549;-73
2023/05/09 07:31:59;;;;;;;;;9.00;8.00;;;;;16.63;66.29;100661.97;5074004;27;45751;-74
2023/05/09 07:34:25;;;;;;;;;2.00;2.00;;;;;16.64;66.72;100657.50;5074341;28;45620;-74
2023/05/09 07:40:12;;;;;;;;;2.00;2.00;;;;;16.59;66.50;100654.47;5073986;28;45514;-78
2023/05/09 07:42:38;;;;;;;;;2.00;2.00;;;;;16.58;66.29;100650.13;5074225;27;45541;-75
2023/05/09 07:45:05;;;;;;;;;2.00;2.00;;;;;16.58;66.32;100648.31;5074345;27;45517;-74
2023/05/09 07:47:31;;;;;;;;;1.00;1.00;;;;;16.59;66.28;100644.72;5073825;27;47381;-77
2023/05/09 07:49:56;;;;;;;;;2.25;1.00;;;;;16.55;66.68;100640.69;5089584;27;47452;-76
2023/05/09 07:55:44;;;;;;;;;1.00;1.00;;;;;16.53;66.43;100636.50;5073976;28;45542;-74
2023/05/09 07:58:09;;;;;;;;;1.00;1.00;;;;;16.50;66.52;100642.09;5073668;27;46449;-75
2023/05/09 08:00:34;;;;;;;;;3.25;3.25;;;;;16.52;66.71;100640.16;5089323;27;47792;-77
2023/05/09 08:03:00;;;;;;;;;3.00;3.00;;;;;16.53;66.99;100641.78;5073829;27;45604;-74
2023/05/09 08:05:25;;;;;;;;;1.00;1.00;;;;;16.54;66.83;100638.16;5073926;27;45600;-75
2023/05/09 08:07:51;;;;;;;;;4.00;3.00;;;;;16.55;66.90;100639.84;5073596;27;45743;-76
2023/05/09 08:10:16;;;;;;;;;3.50;2.00;;;;;16.55;67.37;100630.09;5073656;27;45636;-75
2023/05/09 08:12:41;;;;;;;;;2.75;2.00;;;;;16.58;67.13;100624.50;5073425;27;45658;-73
2023/05/09 08:15:07;;;;;;;;;4.00;2.25;;;;;16.62;67.21;100631.22;5073641;27;45694;-76
2023/05/09 08:17:32;;;;;;;;;2.50;2.00;;;;;16.66;67.44;100624.66;5073744;27;45675;-75
2023/05/09 08:19:58;;;;;;;;;3.00;2.50;;;;;16.68;67.79;100622.66;5073516;27;47216;-76
2023/05/09 08:25:45;;;;;;;;;3.25;3.25;;;;;16.64;67.96;100620.47;5073638;28;45762;-75
2023/05/09 08:28:11;;;;;;;;;3.50;3.00;;;;;16.68;68.08;100614.72;5073516;27;46239;-76
2023/05/09 08:30:36;;;;;;;;;3.25;3.25;;;;;16.71;67.64;100610.97;5073169;27;45692;-75
2023/05/09 08:33:01;;;;;;;;;4.00;4.00;;;;;16.72;68.20;100610.00;5073426;27;45653;-75
2023/05/09 08:35:27;;;;;;;;;3.50;3.50;;;;;16.76;67.83;100598.97;5073597;27;45916;-75
2023/05/09 08:41:14;;;;;;;;;3.00;3.00;;;;;16.78;67.82;100597.00;5074668;28;46058;-75
2023/05/09 08:43:40;;;;;;;;;3.00;3.00;;;;;16.79;68.34;100589.88;5076938;27;45752;-75
2023/05/09 08:46:08;;;;;;;;;5.00;4.00;;;;;16.78;68.28;100589.06;5076928;27;45569;-77
2023/05/09 08:48:37;;;;;;;;;2.00;2.00;;;;;16.79;68.32;100588.06;5076700;27;47364;-76
2023/05/09 08:51:04;;;;;;;;;4.50;3.50;;;;;16.81;68.10;100587.91;5076445;27;46209;-72
2023/05/09 08:53:31;;;;;;;;;4.00;3.00;;;;;16.82;68.24;100586.94;5076954;28;45591;-73
2023/05/09 08:56:01;;;;;;;;;2.75;2.75;;;;;16.80;68.41;100578.31;5077083;27;45613;-75
2023/05/09 08:58:27;;;;;;;;;3.50;3.00;;;;;16.80;68.96;100570.38;5076347;27;46015;-72
2023/05/09 09:00:54;;;;;;;;;3.25;2.00;;;;;16.79;68.33;100582.78;5076447;27;46332;-74
2023/05/09 09:03:20;;;;;;;;;3.00;3.00;;;;;16.79;68.83;100569.53;5076436;27;45931;-72
2023/05/09 09:05:46;;;;;;;;;2.00;2.00;;;;;16.75;68.89;100572.63;5076762;27;45646;-76
2023/05/09 09:11:34;;;;;;;;;1.25;1.25;;;;;16.67;68.43;100573.41;5065130;28;45659;-74
2023/05/09 09:14:04;;;;;;;;;1.75;1.75;;;;;16.61;68.46;100568.72;5076571;27;45792;-72
2023/05/09 09:16:34;;;;;;;;;2.00;1.00;;;;;16.51;69.00;100564.41;5076715;28;45654;-73
2023/05/09 09:18:59;;;;;;;;;1.75;1.00;;;;;16.50;69.42;100560.94;5076090;27;46950;-75
2023/05/09 09:21:26;;;;;;;;;2.00;2.00;;;;;16.49;69.50;100563.72;5076384;27;45687;-74
2023/05/09 09:23:54;;;;;;;;;2.00;2.00;;;;;16.51;69.45;100549.38;5076484;27;45704;-76
2023/05/09 09:26:20;;;;;;;;;2.75;2.00;;;;;16.52;69.26;100555.50;5075250;28;45542;-76
2023/05/09 09:28:45;;;;;;;;;3.50;2.75;;;;;16.55;69.57;100552.56;5076173;28;46438;-74
2023/05/09 09:31:31;;;;;;;;;3.00;2.00;;;;;16.53;69.47;100560.63;5074660;28;47088;-75
2023/05/09 09:34:05;;;;;;;;;1.75;1.00;;;;;16.51;69.58;100559.97;5076178;27;45611;-74
2023/05/09 09:36:31;;;;;;;;;3.00;1.00;;;;;16.46;69.43;100566.69;5076010;27;45481;-74
2023/05/09 09:39:03;;;;;;;;;2.00;1.00;;;;;16.43;69.32;100565.16;5076010;27;45646;-73
2023/05/09 09:41:34;;;;;;;;;1.25;1.25;;;;;16.40;69.52;100567.25;5075727;27;46219;-72
2023/05/09 09:44:16;;;;;;;;;1.00;1.00;;;;;16.40;69.83;100568.09;5076049;27;45702;-73
2023/05/09 09:46:50;;;;;;;;;3.00;1.75;;;;;16.40;69.87;100560.16;5091690;27;45860;-76
2023/05/09 09:49:18;;;;;;;;;1.00;1.00;;;;;16.37;70.04;100557.81;5076031;27;46473;-74
2023/05/09 09:51:48;;;;;;;;;2.00;1.00;;;;;16.31;70.11;100559.22;5091062;27;48204;-75
2023/05/09 09:54:13;;;;;;;;;1.00;1.00;;;;;16.33;70.14;100554.63;5075631;27;45691;-75
2023/05/09 09:56:44;;;;;;;;;2.00;1.00;;;;;16.34;70.07;100558.09;5075915;27;45608;-75
2023/05/09 09:59:11;;;;;;;;;0.75;0.75;;;;;16.35;70.36;100551.84;5075735;27;45852;-75
2023/05/09 10:01:57;;;;;;;;;1.00;1.00;;;;;16.38;70.18;100547.09;5075671;27;46123;-74
2023/05/09 10:04:23;;;;;;;;;0.00;0.00;;;;;16.38;70.17;100549.72;5075735;27;45612;-77
2023/05/09 10:06:53;;;;;;;;;1.00;0.25;;;;;16.38;70.36;100546.25;5075831;27;45855;-75
2023/05/09 10:09:20;;;;;;;;;0.75;0.75;;;;;16.38;70.31;100548.91;5075232;27;46404;-76
2023/05/09 10:11:49;;;;;;;;;0.00;0.00;;;;;16.36;70.02;100541.09;5075310;27;46104;-76
2023/05/09 10:14:15;;;;;;;;;1.00;1.00;;;;;16.35;70.58;100534.19;5075544;27;45773;-74
2023/05/09 10:16:42;;;;;;;;;0.00;0.00;;;;;16.35;70.34;100530.69;5075742;28;45591;-76
2023/05/09 10:19:09;;;;;;;;;1.00;0.75;;;;;16.28;70.56;100532.25;5075448;27;45686;-76
2023/05/09 10:21:36;;;;;;;;;1.00;0.00;;;;;16.28;70.83;100534.91;5075499;27;46019;-76
2023/05/09 10:24:04;;;;;;;;;0.00;0.00;;;;;16.28;70.67;100525.16;5075472;27;45584;-74
2023/05/09 10:26:36;;;;;;;;;2.00;1.00;;;;;16.29;70.60;100520.72;5075685;27;45534;-78
2023/05/09 10:29:09;;;;;;;;;1.00;1.00;;;;;16.28;70.86;100516.38;5075237;27;45558;-75
2023/05/09 10:31:37;;;;;;;;;1.00;1.00;;;;;16.28;70.99;100516.38;5074999;27;47316;-76
2023/05/09 10:34:08;;;;;;;;;0.00;0.00;;;;;16.27;70.92;100512.91;5074050;28;45707;-76
2023/05/09 10:36:35;;;;;;;;;0.00;0.00;;;;;16.28;71.13;100503.16;5075087;27;45867;-74
2023/05/09 10:39:01;;;;;;;;;1.25;1.25;;;;;16.23;71.07;100508.91;5074896;27;45667;-75
2023/05/09 10:41:27;;;;;;;;;1.00;1.00;;;;;16.24;71.42;100507.09;5074821;27;46083;-75
2023/05/09 10:43:56;;;;;;;;;1.00;1.00;;;;;16.25;71.59;100508.75;5075209;27;45546;-77
2023/05/09 10:46:23;;;;;;;;;0.50;0.00;;;;;16.23;71.29;100500.13;5075425;27;45659;-76
2023/05/09 10:48:50;;;;;;;;;1.00;1.00;;;;;16.22;71.61;100499.31;5075088;27;45511;-74
2023/05/09 10:51:16;;;;;;;;;0.75;0.75;;;;;16.27;71.69;100488.28;5075018;27;46016;-77
2023/05/09 10:57:08;;;;;;;;;0.00;0.00;;;;;16.38;71.41;100501.28;5075106;28;45679;-75
2023/05/09 10:59:39;;;;;;;;;0.00;0.00;;;;;16.40;71.69;100495.88;5074618;27;46459;-77
2023/05/09 11:02:10;;;;;;;;;0.00;0.00;;;;;16.42;71.59;100484.16;5074929;27;46538;-77
2023/05/09 11:04:38;;;;;;;;;0.00;0.00;;;;;16.45;71.91;100493.59;5074175;27;45620;-76
2023/05/09 11:07:21;;;;;;;;;0.25;0.00;;;;;16.47;71.78;100475.75;5075187;27;45514;-73
2023/05/09 11:09:50;;;;;;;;;0.00;0.00;;;;;16.49;71.62;100479.09;5074795;27;46678;-78
2023/05/09 11:12:20;;;;;;;;;0.00;0.00;;;;;16.51;71.61;100483.28;5074241;27;47423;-75
2023/05/09 11:14:48;;;;;;;;;0.00;0.00;;;;;16.50;71.57;100476.31;5074425;27;45668;-76
2023/05/09 11:17:27;;;;;;;;;0.00;0.00;;;;;16.53;71.71;100476.00;5073197;28;45524;-76
2023/05/09 11:19:52;;;;;;;;;0.75;0.75;;;;;16.53;71.79;100476.00;5074601;27;45766;-77
2023/05/09 11:22:23;;;;;;;;;0.00;0.00;;;;;16.49;72.03;100477.28;5074511;27;45779;-78
2023/05/09 11:24:51;;;;;;;;;0.50;0.25;;;;;16.47;72.08;100471.31;5074465;28;45771;-74
2023/05/09 11:27:21;;;;;;;;;0.75;0.00;;;;;16.50;71.96;100464.91;5074378;27;45718;-76
2023/05/09 11:29:52;;;;;;;;;0.00;0.00;;;;;16.45;72.15;100470.63;5074452;27;45632;-76
2023/05/09 11:32:19;;;;;;;;;0.00;0.00;;;;;16.49;72.52;100473.81;5074004;28;47119;-76
2023/05/09 11:34:45;;;;;;;;;0.00;0.00;;;;;16.55;72.48;100471.41;5074221;27;45671;-77
2023/05/09 11:37:16;;;;;;;;;0.00;0.00;;;;;16.63;72.21;100468.00;5074116;27;45496;-76
2023/05/09 11:39:58;;;;;;;;;0.00;0.00;;;;;16.62;72.17;100469.84;5074041;27;46785;-73
2023/05/09 11:42:26;;;;;;;;;1.00;1.00;;;;;16.62;72.63;100459.28;5073903;27;46891;-76
2023/05/09 11:44:52;;;;;;;;;0.00;0.00;;;;;16.59;72.49;100464.00;5074254;27;45651;-78
2023/05/09 11:47:18;;;;;;;;;0.50;0.00;;;;;16.56;72.21;100461.66;5074236;27;45672;-76
2023/05/09 11:49:44;;;;;;;;;0.00;0.00;;;;;16.57;72.86;100456.19;5073993;27;46418;-75
2023/05/09 11:52:09;;;;;;;;;0.00;0.00;;;;;16.61;73.02;100456.78;5073943;28;46203;-75
2023/05/09 11:57:57;;;;;;;;;0.00;0.00;;;;;16.61;72.43;100456.78;5073815;28;45756;-75
2023/05/09 12:00:25;;;;;;;;;1.00;0.00;;;;;16.49;72.91;100458.78;5089517;27;46678;-76
2023/05/09 12:02:51;;;;;;;;;0.00;0.00;;;;;16.51;73.09;100459.47;5073624;27;46270;-76
2023/05/09 12:05:19;;;;;;;;;0.00;0.00;;;;;16.52;73.40;100455.81;5074136;27;45466;-76
2023/05/09 12:07:45;;;;;;;;;0.00;0.00;;;;;16.55;73.16;100462.63;5074057;28;45806;-76
2023/05/09 12:10:18;;;;;;;;;0.00;0.00;;;;;16.52;73.55;100466.41;5073939;27;45588;-77
2023/05/09 12:12:45;;;;;;;;;0.00;0.00;;;;;16.45;73.29;100456.59;5073706;27;45459;-78
2023/05/09 12:15:12;;;;;;;;;0.00;0.00;;;;;16.47;73.74;100460.72;5075207;27;45672;-76
2023/05/09 12:17:38;;;;;;;;;0.00;0.00;;;;;16.49;74.16;100461.41;5077230;27;45632;-73
2023/05/09 12:20:04;;;;;;;;;0.25;0.00;;;;;16.53;73.83;100462.78;5077240;27;46393;-78
2023/05/09 12:22:30;;;;;;;;;1.00;1.00;;;;;16.51;73.79;100470.03;5075900;28;48221;-76
2023/05/09 12:25:00;;;;;;;;;0.00;0.00;;;;;16.44;74.08;100461.03;5077294;28;45663;-78
2023/05/09 12:27:27;;;;;;;;;0.00;0.00;;;;;16.36;73.79;100469.72;5077489;27;45743;-77
2023/05/09 12:29:52;;;;;;;;;0.00;0.00;;;;;16.32;74.51;100464.88;5077311;27;46216;-78
2023/05/09 12:32:18;;;;;;;;;0.00;0.00;;;;;16.35;74.71;100456.66;5092798;27;47142;-75